sensor_id;sensor_type;location;lat;lon;timestamp;temperature;humidity
35085;SHT85;21267;51.032;6.998;2023-06-22T00:01:58;23.50;65.09
35085;SHT85;21267;51.032;6.998;2023-06-22T00:05:24;23.40;65.15
35085;SHT85;21267;51.032;6.998;2023-06-22T00:08:35;23.50;64.87
35085;SHT85;21267;51.032;6.998;2023-06-22T00:11:40;23.65;64.50
35085;SHT85;21267;51.032;6.998;2023-06-22T00:18:29;23.59;64.35
35085;SHT85;21267;51.032;6.998;2023-06-22T00:21:41;23.42;64.68
35085;SHT85;21267;51.032;6.998;2023-06-22T00:28:03;23.30;64.84
35085;SHT85;21267;51.032;6.998;2023-06-22T00:30:53;23.47;64.23
35085;SHT85;21267;51.032;6.998;2023-06-22T00:33:48;23.54;64.05
35085;SHT85;21267;51.032;6.998;2023-06-22T00:39:39;23.53;63.80
35085;SHT85;21267;51.032;6.998;2023-06-22T00:42:33;23.50;63.76
35085;SHT85;21267;51.032;6.998;2023-06-22T00:45:46;23.58;63.46
35085;SHT85;21267;51.032;6.998;2023-06-22T00:48:49;23.52;63.56
35085;SHT85;21267;51.032;6.998;2023-06-22T00:51:43;23.40;63.73
35085;SHT85;21267;51.032;6.998;2023-06-22T00:54:32;23.54;63.36
35085;SHT85;21267;51.032;6.998;2023-06-22T01:00:56;23.56;63.18
35085;SHT85;21267;51.032;6.998;2023-06-22T01:03:55;23.59;63.50
35085;SHT85;21267;51.032;6.998;2023-06-22T01:14:23;23.33;63.67
35085;SHT85;21267;51.032;6.998;2023-06-22T01:17:12;23.46;63.63
35085;SHT85;21267;51.032;6.998;2023-06-22T01:20:12;23.43;63.38
35085;SHT85;21267;51.032;6.998;2023-06-22T01:23:28;23.40;63.26
35085;SHT85;21267;51.032;6.998;2023-06-22T01:33:45;23.32;64.16
35085;SHT85;21267;51.032;6.998;2023-06-22T01:36:38;23.45;64.28
35085;SHT85;21267;51.032;6.998;2023-06-22T01:43:41;23.30;63.68
35085;SHT85;21267;51.032;6.998;2023-06-22T01:51:05;23.38;63.08
35085;SHT85;21267;51.032;6.998;2023-06-22T01:53:46;23.46;63.37
35085;SHT85;21267;51.032;6.998;2023-06-22T01:56:45;23.58;63.18
35085;SHT85;21267;51.032;6.998;2023-06-22T02:21:38;22.99;65.20
35085;SHT85;21267;51.032;6.998;2023-06-22T02:27:57;22.91;65.70
35085;SHT85;21267;51.032;6.998;2023-06-22T02:31:27;22.81;65.81
35085;SHT85;21267;51.032;6.998;2023-06-22T02:34:13;22.70;66.15
35085;SHT85;21267;51.032;6.998;2023-06-22T02:36:48;22.68;65.98
35085;SHT85;21267;51.032;6.998;2023-06-22T02:39:23;22.61;66.47
35085;SHT85;21267;51.032;6.998;2023-06-22T02:41:57;22.67;66.51
35085;SHT85;21267;51.032;6.998;2023-06-22T02:44:45;22.68;66.64
35085;SHT85;21267;51.032;6.998;2023-06-22T02:48:12;22.61;67.07
35085;SHT85;21267;51.032;6.998;2023-06-22T02:51:06;22.63;67.24
35085;SHT85;21267;51.032;6.998;2023-06-22T02:53:37;22.53;67.29
35085;SHT85;21267;51.032;6.998;2023-06-22T02:56:28;22.50;67.29
35085;SHT85;21267;51.032;6.998;2023-06-22T02:59:14;22.43;67.39
35085;SHT85;21267;51.032;6.998;2023-06-22T03:01:45;22.44;67.27
35085;SHT85;21267;51.032;6.998;2023-06-22T03:04:46;22.41;67.32
35085;SHT85;21267;51.032;6.998;2023-06-22T03:07:30;22.41;67.70
35085;SHT85;21267;51.032;6.998;2023-06-22T03:13:09;22.36;67.91
35085;SHT85;21267;51.032;6.998;2023-06-22T03:19:00;22.41;67.15
35085;SHT85;21267;51.032;6.998;2023-06-22T03:31:30;22.24;67.08
35085;SHT85;21267;51.032;6.998;2023-06-22T03:34:22;22.45;66.69
35085;SHT85;21267;51.032;6.998;2023-06-22T03:37:06;22.34;66.80
35085;SHT85;21267;51.032;6.998;2023-06-22T03:39:47;22.33;66.74
35085;SHT85;21267;51.032;6.998;2023-06-22T03:43:01;22.20;66.91
35085;SHT85;21267;51.032;6.998;2023-06-22T03:52:18;22.44;66.41
35085;SHT85;21267;51.032;6.998;2023-06-22T03:54:55;22.61;66.55
35085;SHT85;21267;51.032;6.998;2023-06-22T04:01:27;22.26;67.26
35085;SHT85;21267;51.032;6.998;2023-06-22T04:04:41;22.29;67.44
35085;SHT85;21267;51.032;6.998;2023-06-22T04:15:16;22.51;67.34
35085;SHT85;21267;51.032;6.998;2023-06-22T04:18:24;22.40;67.85
35085;SHT85;21267;51.032;6.998;2023-06-22T04:21:08;22.43;68.16
35085;SHT85;21267;51.032;6.998;2023-06-22T04:23:53;22.54;68.04
35085;SHT85;21267;51.032;6.998;2023-06-22T04:29:30;22.81;67.34
35085;SHT85;21267;51.032;6.998;2023-06-22T04:32:18;22.81;67.62
35085;SHT85;21267;51.032;6.998;2023-06-22T04:38:42;22.70;68.12
35085;SHT85;21267;51.032;6.998;2023-06-22T04:41:40;22.71;68.33
35085;SHT85;21267;51.032;6.998;2023-06-22T04:44:13;22.72;68.21
35085;SHT85;21267;51.032;6.998;2023-06-22T04:46:57;22.82;68.02
35085;SHT85;21267;51.032;6.998;2023-06-22T04:49:33;22.70;68.15
35085;SHT85;21267;51.032;6.998;2023-06-22T04:52:33;22.88;67.96
35085;SHT85;21267;51.032;6.998;2023-06-22T04:55:22;22.87;68.07
35085;SHT85;21267;51.032;6.998;2023-06-22T04:58:02;22.84;67.96
35085;SHT85;21267;51.032;6.998;2023-06-22T05:00:46;22.81;67.97
35085;SHT85;21267;51.032;6.998;2023-06-22T05:03:18;22.81;68.24
35085;SHT85;21267;51.032;6.998;2023-06-22T05:05:52;22.85;68.24
35085;SHT85;21267;51.032;6.998;2023-06-22T05:08:25;22.82;68.12
35085;SHT85;21267;51.032;6.998;2023-06-22T05:10:56;22.84;68.52
35085;SHT85;21267;51.032;6.998;2023-06-22T05:13:31;22.90;68.44
35085;SHT85;21267;51.032;6.998;2023-06-22T05:16:08;23.01;68.67
35085;SHT85;21267;51.032;6.998;2023-06-22T05:18:42;22.98;68.84
35085;SHT85;21267;51.032;6.998;2023-06-22T05:21:21;23.07;68.58
35085;SHT85;21267;51.032;6.998;2023-06-22T05:24:15;23.01;69.53
35085;SHT85;21267;51.032;6.998;2023-06-22T05:27:25;22.87;70.18
35085;SHT85;21267;51.032;6.998;2023-06-22T05:29:52;22.87;70.04
35085;SHT85;21267;51.032;6.998;2023-06-22T05:32:21;22.95;69.75
35085;SHT85;21267;51.032;6.998;2023-06-22T05:35:02;22.90;69.28
35085;SHT85;21267;51.032;6.998;2023-06-22T05:37:30;22.85;69.63
35085;SHT85;21267;51.032;6.998;2023-06-22T05:40:18;23.09;68.83
35085;SHT85;21267;51.032;6.998;2023-06-22T05:42:53;22.95;70.42
35085;SHT85;21267;51.032;6.998;2023-06-22T05:45:38;22.72;71.45
35085;SHT85;21267;51.032;6.998;2023-06-22T05:48:06;22.98;70.00
35085;SHT85;21267;51.032;6.998;2023-06-22T05:50:34;23.18;69.59
35085;SHT85;21267;51.032;6.998;2023-06-22T05:53:01;23.39;69.82
35085;SHT85;21267;51.032;6.998;2023-06-22T05:58:37;23.03;72.03
35085;SHT85;21267;51.032;6.998;2023-06-22T06:01:06;23.15;71.96
35085;SHT85;21267;51.032;6.998;2023-06-22T06:03:36;23.29;71.67
35085;SHT85;21267;51.032;6.998;2023-06-22T06:06:08;23.40;71.48
35085;SHT85;21267;51.032;6.998;2023-06-22T06:08:38;23.54;71.48
35085;SHT85;21267;51.032;6.998;2023-06-22T06:11:06;23.79;70.62
35085;SHT85;21267;51.032;6.998;2023-06-22T06:13:33;23.91;70.73
35085;SHT85;21267;51.032;6.998;2023-06-22T06:16:04;23.90;71.02
35085;SHT85;21267;51.032;6.998;2023-06-22T06:18:31;24.00;70.78
35085;SHT85;21267;51.032;6.998;2023-06-22T06:20:58;23.63;72.10
35085;SHT85;21267;51.032;6.998;2023-06-22T06:23:28;23.97;71.23
35085;SHT85;21267;51.032;6.998;2023-06-22T06:25:55;24.27;70.65
35085;SHT85;21267;51.032;6.998;2023-06-22T06:28:25;24.42;70.17
35085;SHT85;21267;51.032;6.998;2023-06-22T06:33:41;23.97;71.83
35085;SHT85;21267;51.032;6.998;2023-06-22T06:36:40;24.28;71.41
35085;SHT85;21267;51.032;6.998;2023-06-22T06:39:19;24.55;70.39
35085;SHT85;21267;51.032;6.998;2023-06-22T06:42:04;24.35;71.11
35085;SHT85;21267;51.032;6.998;2023-06-22T06:44:51;24.73;70.40
35085;SHT85;21267;51.032;6.998;2023-06-22T06:48:00;24.69;70.64
35085;SHT85;21267;51.032;6.998;2023-06-22T06:50:59;24.39;71.72
35085;SHT85;21267;51.032;6.998;2023-06-22T06:54:20;24.86;70.63
35085;SHT85;21267;51.032;6.998;2023-06-22T06:57:24;24.87;70.97
35085;SHT85;21267;51.032;6.998;2023-06-22T07:00:16;25.36;69.99
35085;SHT85;21267;51.032;6.998;2023-06-22T07:05:35;25.33;70.26
35085;SHT85;21267;51.032;6.998;2023-06-22T07:08:05;25.24;70.20
35085;SHT85;21267;51.032;6.998;2023-06-22T07:11:09;25.24;70.44
35085;SHT85;21267;51.032;6.998;2023-06-22T07:14:04;25.75;68.89
35085;SHT85;21267;51.032;6.998;2023-06-22T07:16:57;25.61;69.39
35085;SHT85;21267;51.032;6.998;2023-06-22T07:20:25;25.54;69.40
35085;SHT85;21267;51.032;6.998;2023-06-22T07:23:20;25.82;68.77
35085;SHT85;21267;51.032;6.998;2023-06-22T07:26:02;25.45;69.52
35085;SHT85;21267;51.032;6.998;2023-06-22T07:29:01;25.31;70.17
35085;SHT85;21267;51.032;6.998;2023-06-22T07:35:06;26.22;67.72
35085;SHT85;21267;51.032;6.998;2023-06-22T07:37:46;26.23;67.31
35085;SHT85;21267;51.032;6.998;2023-06-22T07:40:13;25.77;68.45
35085;SHT85;21267;51.032;6.998;2023-06-22T07:42:44;25.74;68.76
35085;SHT85;21267;51.032;6.998;2023-06-22T07:45:32;25.84;68.50
35085;SHT85;21267;51.032;6.998;2023-06-22T07:48:22;25.85;68.42
35085;SHT85;21267;51.032;6.998;2023-06-22T07:50:49;26.15;67.35
35085;SHT85;21267;51.032;6.998;2023-06-22T07:53:16;26.09;67.75
35085;SHT85;21267;51.032;6.998;2023-06-22T07:55:43;25.94;68.07
35085;SHT85;21267;51.032;6.998;2023-06-22T07:58:10;25.82;68.35
35085;SHT85;21267;51.032;6.998;2023-06-22T08:00:36;25.78;68.51
35085;SHT85;21267;51.032;6.998;2023-06-22T08:03:03;25.99;67.62
35085;SHT85;21267;51.032;6.998;2023-06-22T08:05:32;26.12;67.59
35085;SHT85;21267;51.032;6.998;2023-06-22T08:08:01;26.40;66.91
35085;SHT85;21267;51.032;6.998;2023-06-22T08:10:29;26.84;66.10
35085;SHT85;21267;51.032;6.998;2023-06-22T08:12:56;27.15;65.31
35085;SHT85;21267;51.032;6.998;2023-06-22T08:15:23;27.59;64.14
35085;SHT85;21267;51.032;6.998;2023-06-22T08:17:50;27.14;64.37
35085;SHT85;21267;51.032;6.998;2023-06-22T08:20:17;26.91;63.90
35085;SHT85;21267;51.032;6.998;2023-06-22T08:22:44;27.32;63.87
35085;SHT85;21267;51.032;6.998;2023-06-22T08:25:11;27.75;62.46
35085;SHT85;21267;51.032;6.998;2023-06-22T08:27:39;28.85;60.17
35085;SHT85;21267;51.032;6.998;2023-06-22T08:30:06;29.35;58.94
35085;SHT85;21267;51.032;6.998;2023-06-22T08:32:34;29.98;56.65
35085;SHT85;21267;51.032;6.998;2023-06-22T08:35:01;30.10;55.58
35085;SHT85;21267;51.032;6.998;2023-06-22T08:37:29;29.14;57.83
35085;SHT85;21267;51.032;6.998;2023-06-22T08:40:04;29.57;57.97
35085;SHT85;21267;51.032;6.998;2023-06-22T08:42:32;28.51;60.55
35085;SHT85;21267;51.032;6.998;2023-06-22T08:44:59;28.40;60.71
35085;SHT85;21267;51.032;6.998;2023-06-22T08:47:27;29.29;59.17
35085;SHT85;21267;51.032;6.998;2023-06-22T08:49:54;30.29;56.78
35085;SHT85;21267;51.032;6.998;2023-06-22T08:52:21;29.43;59.99
35085;SHT85;21267;51.032;6.998;2023-06-22T08:54:50;29.72;59.42
35085;SHT85;21267;51.032;6.998;2023-06-22T08:57:18;31.42;55.69
35085;SHT85;21267;51.032;6.998;2023-06-22T08:59:45;31.09;56.44
35085;SHT85;21267;51.032;6.998;2023-06-22T09:02:14;30.46;57.47
35085;SHT85;21267;51.032;6.998;2023-06-22T09:04:41;29.90;59.78
35085;SHT85;21267;51.032;6.998;2023-06-22T09:07:08;29.66;60.67
35085;SHT85;21267;51.032;6.998;2023-06-22T09:09:35;29.30;61.68
35085;SHT85;21267;51.032;6.998;2023-06-22T09:12:03;29.42;60.45
35085;SHT85;21267;51.032;6.998;2023-06-22T09:14:30;29.03;61.79
35085;SHT85;21267;51.032;6.998;2023-06-22T09:16:57;29.33;60.72
35085;SHT85;21267;51.032;6.998;2023-06-22T09:19:25;29.51;60.92
35085;SHT85;21267;51.032;6.998;2023-06-22T09:21:52;29.19;60.84
35085;SHT85;21267;51.032;6.998;2023-06-22T09:24:18;29.26;60.68
35085;SHT85;21267;51.032;6.998;2023-06-22T09:26:46;29.29;59.72
35085;SHT85;21267;51.032;6.998;2023-06-22T09:29:14;30.36;57.31
35085;SHT85;21267;51.032;6.998;2023-06-22T09:31:40;30.53;57.54
35085;SHT85;21267;51.032;6.998;2023-06-22T09:34:08;29.73;58.24
35085;SHT85;21267;51.032;6.998;2023-06-22T09:36:35;29.62;58.33
35085;SHT85;21267;51.032;6.998;2023-06-22T09:39:02;29.57;58.71
35085;SHT85;21267;51.032;6.998;2023-06-22T09:41:32;30.38;57.19
35085;SHT85;21267;51.032;6.998;2023-06-22T09:43:59;29.73;58.95
35085;SHT85;21267;51.032;6.998;2023-06-22T09:46:26;30.31;57.64
35085;SHT85;21267;51.032;6.998;2023-06-22T09:48:53;29.94;58.25
35085;SHT85;21267;51.032;6.998;2023-06-22T09:51:20;29.97;57.73
35085;SHT85;21267;51.032;6.998;2023-06-22T09:53:48;29.77;57.56
35085;SHT85;21267;51.032;6.998;2023-06-22T09:56:15;29.95;57.30
35085;SHT85;21267;51.032;6.998;2023-06-22T09:58:43;30.22;57.36
35085;SHT85;21267;51.032;6.998;2023-06-22T10:01:10;30.02;57.48
35085;SHT85;21267;51.032;6.998;2023-06-22T10:03:39;29.62;58.71
35085;SHT85;21267;51.032;6.998;2023-06-22T10:06:09;29.43;59.11
35085;SHT85;21267;51.032;6.998;2023-06-22T10:08:35;29.19;59.52
35085;SHT85;21267;51.032;6.998;2023-06-22T10:11:03;29.14;59.57
35085;SHT85;21267;51.032;6.998;2023-06-22T10:13:30;28.61;60.91
35085;SHT85;21267;51.032;6.998;2023-06-22T10:15:58;28.77;60.54
35085;SHT85;21267;51.032;6.998;2023-06-22T10:18:25;28.51;61.18
35085;SHT85;21267;51.032;6.998;2023-06-22T10:20:52;28.38;61.38
35085;SHT85;21267;51.032;6.998;2023-06-22T10:23:19;28.54;61.27
35085;SHT85;21267;51.032;6.998;2023-06-22T10:25:46;28.06;62.67
35085;SHT85;21267;51.032;6.998;2023-06-22T10:28:14;27.46;66.61
35085;SHT85;21267;51.032;6.998;2023-06-22T10:30:41;27.08;67.97
35085;SHT85;21267;51.032;6.998;2023-06-22T10:33:08;26.88;69.75
35085;SHT85;21267;51.032;6.998;2023-06-22T10:35:35;26.62;70.94
35085;SHT85;21267;51.032;6.998;2023-06-22T10:38:04;26.31;73.61
35085;SHT85;21267;51.032;6.998;2023-06-22T10:40:32;26.12;72.79
35085;SHT85;21267;51.032;6.998;2023-06-22T10:42:59;25.98;73.80
35085;SHT85;21267;51.032;6.998;2023-06-22T10:45:26;25.96;75.96
35085;SHT85;21267;51.032;6.998;2023-06-22T10:47:55;25.51;75.29
35085;SHT85;21267;51.032;6.998;2023-06-22T10:50:22;25.15;78.82
35085;SHT85;21267;51.032;6.998;2023-06-22T10:52:50;24.48;81.12
35085;SHT85;21267;51.032;6.998;2023-06-22T10:55:17;23.87;84.77
35085;SHT85;21267;51.032;6.998;2023-06-22T10:57:44;23.18;85.60
35085;SHT85;21267;51.032;6.998;2023-06-22T11:00:14;22.94;88.23
35085;SHT85;21267;51.032;6.998;2023-06-22T11:02:42;23.05;89.46
35085;SHT85;21267;51.032;6.998;2023-06-22T11:05:10;22.99;88.88
35085;SHT85;21267;51.032;6.998;2023-06-22T11:07:42;22.96;90.02
35085;SHT85;21267;51.032;6.998;2023-06-22T11:10:10;22.78;90.07
35085;SHT85;21267;51.032;6.998;2023-06-22T11:12:37;22.96;90.97
35085;SHT85;21267;51.032;6.998;2023-06-22T11:15:05;22.98;91.85
35085;SHT85;21267;51.032;6.998;2023-06-22T11:17:32;22.87;90.64
35085;SHT85;21267;51.032;6.998;2023-06-22T11:19:59;22.78;90.52
35085;SHT85;21267;51.032;6.998;2023-06-22T11:22:27;23.07;90.10
35085;SHT85;21267;51.032;6.998;2023-06-22T11:24:53;23.22;90.34
35085;SHT85;21267;51.032;6.998;2023-06-22T11:27:20;22.85;92.12
35085;SHT85;21267;51.032;6.998;2023-06-22T11:29:47;22.80;91.97
35085;SHT85;21267;51.032;6.998;2023-06-22T11:32:14;22.77;92.62
35085;SHT85;21267;51.032;6.998;2023-06-22T11:34:41;22.90;92.88
35085;SHT85;21267;51.032;6.998;2023-06-22T11:37:08;22.99;92.35
35085;SHT85;21267;51.032;6.998;2023-06-22T11:39:38;23.49;91.95
35085;SHT85;21267;51.032;6.998;2023-06-22T11:42:08;23.67;90.76
35085;SHT85;21267;51.032;6.998;2023-06-22T11:44:36;23.63;91.62
35085;SHT85;21267;51.032;6.998;2023-06-22T11:47:03;23.79;90.93
35085;SHT85;21267;51.032;6.998;2023-06-22T11:49:33;23.69;91.02
35085;SHT85;21267;51.032;6.998;2023-06-22T11:52:01;23.50;90.94
35085;SHT85;21267;51.032;6.998;2023-06-22T11:54:28;23.59;91.18
35085;SHT85;21267;51.032;6.998;2023-06-22T11:56:55;23.52;90.02
35085;SHT85;21267;51.032;6.998;2023-06-22T11:59:22;23.70;89.70
35085;SHT85;21267;51.032;6.998;2023-06-22T12:01:49;24.02;89.05
35085;SHT85;21267;51.032;6.998;2023-06-22T12:04:18;24.01;89.26
35085;SHT85;21267;51.032;6.998;2023-06-22T12:06:45;23.65;88.98
35085;SHT85;21267;51.032;6.998;2023-06-22T12:09:13;23.42;90.11
35085;SHT85;21267;51.032;6.998;2023-06-22T12:11:40;23.56;90.23
35085;SHT85;21267;51.032;6.998;2023-06-22T12:14:07;24.08;89.58
35085;SHT85;21267;51.032;6.998;2023-06-22T12:16:34;24.99;87.30
35085;SHT85;21267;51.032;6.998;2023-06-22T12:19:00;25.45;84.85
35085;SHT85;21267;51.032;6.998;2023-06-22T12:21:27;25.53;84.13
35085;SHT85;21267;51.032;6.998;2023-06-22T12:23:55;25.61;84.02
35085;SHT85;21267;51.032;6.998;2023-06-22T12:26:22;24.47;85.64
35085;SHT85;21267;51.032;6.998;2023-06-22T12:28:49;25.20;85.43
35085;SHT85;21267;51.032;6.998;2023-06-22T12:31:17;24.95;86.57
35085;SHT85;21267;51.032;6.998;2023-06-22T12:33:44;25.17;86.38
35085;SHT85;21267;51.032;6.998;2023-06-22T12:36:10;25.28;85.26
35085;SHT85;21267;51.032;6.998;2023-06-22T12:38:37;24.85;85.82
35085;SHT85;21267;51.032;6.998;2023-06-22T12:41:04;25.74;84.17
35085;SHT85;21267;51.032;6.998;2023-06-22T12:43:31;25.65;83.83
35085;SHT85;21267;51.032;6.998;2023-06-22T12:45:58;26.52;83.39
35085;SHT85;21267;51.032;6.998;2023-06-22T12:48:27;27.05;81.78
35085;SHT85;21267;51.032;6.998;2023-06-22T12:50:54;26.47;81.96
35085;SHT85;21267;51.032;6.998;2023-06-22T12:53:21;26.52;80.55
35085;SHT85;21267;51.032;6.998;2023-06-22T12:55:50;26.64;80.74
35085;SHT85;21267;51.032;6.998;2023-06-22T12:58:17;27.43;78.14
35085;SHT85;21267;51.032;6.998;2023-06-22T13:00:45;27.97;78.62
35085;SHT85;21267;51.032;6.998;2023-06-22T13:03:12;28.23;77.21
35085;SHT85;21267;51.032;6.998;2023-06-22T13:05:39;27.66;75.78
35085;SHT85;21267;51.032;6.998;2023-06-22T13:08:07;28.16;75.16
35085;SHT85;21267;51.032;6.998;2023-06-22T13:10:38;27.32;76.28
35085;SHT85;21267;51.032;6.998;2023-06-22T13:13:05;28.10;75.30
35085;SHT85;21267;51.032;6.998;2023-06-22T13:15:32;26.83;76.49
35085;SHT85;21267;51.032;6.998;2023-06-22T13:17:59;28.33;75.34
35085;SHT85;21267;51.032;6.998;2023-06-22T13:20:29;28.60;72.80
35085;SHT85;21267;51.032;6.998;2023-06-22T13:22:56;28.68;72.21
35085;SHT85;21267;51.032;6.998;2023-06-22T13:25:23;28.60;72.96
35085;SHT85;21267;51.032;6.998;2023-06-22T13:27:54;29.32;71.13
35085;SHT85;21267;51.032;6.998;2023-06-22T13:30:21;28.33;70.67
35085;SHT85;21267;51.032;6.998;2023-06-22T13:32:48;28.60;70.73
35085;SHT85;21267;51.032;6.998;2023-06-22T13:35:15;28.88;70.87
35085;SHT85;21267;51.032;6.998;2023-06-22T13:37:45;28.71;70.29
35085;SHT85;21267;51.032;6.998;2023-06-22T13:40:12;28.49;70.05
35085;SHT85;21267;51.032;6.998;2023-06-22T13:42:42;28.96;68.63
35085;SHT85;21267;51.032;6.998;2023-06-22T13:45:09;28.20;69.29
35085;SHT85;21267;51.032;6.998;2023-06-22T13:47:36;28.43;69.53
35085;SHT85;21267;51.032;6.998;2023-06-22T13:50:04;28.81;69.80
35085;SHT85;21267;51.032;6.998;2023-06-22T13:52:31;28.85;69.19
35085;SHT85;21267;51.032;6.998;2023-06-22T13:54:58;29.39;68.46
35085;SHT85;21267;51.032;6.998;2023-06-22T13:57:25;28.57;69.31
35085;SHT85;21267;51.032;6.998;2023-06-22T13:59:52;28.92;69.31
35085;SHT85;21267;51.032;6.998;2023-06-22T14:02:19;28.47;69.19
35085;SHT85;21267;51.032;6.998;2023-06-22T14:04:46;29.02;68.52
35085;SHT85;21267;51.032;6.998;2023-06-22T14:07:13;28.57;70.39
35085;SHT85;21267;51.032;6.998;2023-06-22T14:09:40;29.78;66.91
35085;SHT85;21267;51.032;6.998;2023-06-22T14:12:07;29.78;66.95
35085;SHT85;21267;51.032;6.998;2023-06-22T14:14:34;30.46;65.62
35085;SHT85;21267;51.032;6.998;2023-06-22T14:17:01;30.18;65.46
35085;SHT85;21267;51.032;6.998;2023-06-22T14:19:28;29.95;65.51
35085;SHT85;21267;51.032;6.998;2023-06-22T14:21:55;30.12;64.63
35085;SHT85;21267;51.032;6.998;2023-06-22T14:24:24;30.05;65.33
35085;SHT85;21267;51.032;6.998;2023-06-22T14:26:55;29.11;66.32
35085;SHT85;21267;51.032;6.998;2023-06-22T14:29:23;28.24;68.19
35085;SHT85;21267;51.032;6.998;2023-06-22T14:31:49;27.78;69.01
35085;SHT85;21267;51.032;6.998;2023-06-22T14:34:17;27.83;69.06
35085;SHT85;21267;51.032;6.998;2023-06-22T14:36:49;27.92;68.75
35085;SHT85;21267;51.032;6.998;2023-06-22T14:39:16;27.93;68.31
35085;SHT85;21267;51.032;6.998;2023-06-22T14:41:43;27.51;69.12
35085;SHT85;21267;51.032;6.998;2023-06-22T14:44:10;27.51;69.32
35085;SHT85;21267;51.032;6.998;2023-06-22T14:46:37;26.83;71.03
35085;SHT85;21267;51.032;6.998;2023-06-22T14:49:04;27.12;71.05
35085;SHT85;21267;51.032;6.998;2023-06-22T14:51:31;27.05;71.49
35085;SHT85;21267;51.032;6.998;2023-06-22T14:53:58;26.56;72.73
35085;SHT85;21267;51.032;6.998;2023-06-22T14:56:25;26.52;73.51
35085;SHT85;21267;51.032;6.998;2023-06-22T14:58:55;26.16;74.95
35085;SHT85;21267;51.032;6.998;2023-06-22T15:01:23;26.49;74.79
35085;SHT85;21267;51.032;6.998;2023-06-22T15:03:54;25.88;77.70
35085;SHT85;21267;51.032;6.998;2023-06-22T15:06:21;25.38;79.08
35085;SHT85;21267;51.032;6.998;2023-06-22T15:08:51;24.92;81.95
35085;SHT85;21267;51.032;6.998;2023-06-22T15:11:25;24.55;85.58
35085;SHT85;21267;51.032;6.998;2023-06-22T15:13:52;23.60;89.11
35085;SHT85;21267;51.032;6.998;2023-06-22T15:16:25;23.15;92.32
35085;SHT85;21267;51.032;6.998;2023-06-22T15:19:01;22.92;92.13
35085;SHT85;21267;51.032;6.998;2023-06-22T15:21:28;22.94;93.05
35085;SHT85;21267;51.032;6.998;2023-06-22T15:23:55;22.85;93.31
35085;SHT85;21267;51.032;6.998;2023-06-22T15:26:22;23.05;92.55
35085;SHT85;21267;51.032;6.998;2023-06-22T15:28:49;22.78;92.82
35085;SHT85;21267;51.032;6.998;2023-06-22T15:31:16;22.67;93.48
35085;SHT85;21267;51.032;6.998;2023-06-22T15:33:43;22.61;93.10
35085;SHT85;21267;51.032;6.998;2023-06-22T15:36:10;22.61;93.15
35085;SHT85;21267;51.032;6.998;2023-06-22T15:38:36;22.59;93.41
35085;SHT85;21267;51.032;6.998;2023-06-22T15:41:04;22.40;93.25
35085;SHT85;21267;51.032;6.998;2023-06-22T15:43:31;22.32;93.37
35085;SHT85;21267;51.032;6.998;2023-06-22T15:45:58;22.30;93.85
35085;SHT85;21267;51.032;6.998;2023-06-22T15:48:27;22.19;94.47
35085;SHT85;21267;51.032;6.998;2023-06-22T15:50:54;22.36;93.87
35085;SHT85;21267;51.032;6.998;2023-06-22T15:53:21;22.60;93.24
35085;SHT85;21267;51.032;6.998;2023-06-22T15:55:48;22.63;92.95
35085;SHT85;21267;51.032;6.998;2023-06-22T15:58:15;22.47;92.81
35085;SHT85;21267;51.032;6.998;2023-06-22T16:00:43;22.57;92.47
35085;SHT85;21267;51.032;6.998;2023-06-22T16:03:12;22.75;92.13
35085;SHT85;21267;51.032;6.998;2023-06-22T16:05:39;22.91;92.50
35085;SHT85;21267;51.032;6.998;2023-06-22T16:08:10;22.67;93.30
35085;SHT85;21267;51.032;6.998;2023-06-22T16:10:41;22.32;93.13
35085;SHT85;21267;51.032;6.998;2023-06-22T16:13:08;22.39;92.89
35085;SHT85;21267;51.032;6.998;2023-06-22T16:15:35;22.44;92.21
35085;SHT85;21267;51.032;6.998;2023-06-22T16:18:02;22.61;92.09
35085;SHT85;21267;51.032;6.998;2023-06-22T16:20:30;22.80;91.02
35085;SHT85;21267;51.032;6.998;2023-06-22T16:22:57;22.96;89.90
35085;SHT85;21267;51.032;6.998;2023-06-22T16:25:24;22.48;90.98
35085;SHT85;21267;51.032;6.998;2023-06-22T16:27:52;22.36;90.88
35085;SHT85;21267;51.032;6.998;2023-06-22T16:30:19;22.55;91.20
35085;SHT85;21267;51.032;6.998;2023-06-22T16:32:56;22.53;90.81
35085;SHT85;21267;51.032;6.998;2023-06-22T16:35:26;22.32;91.54
35085;SHT85;21267;51.032;6.998;2023-06-22T16:37:53;22.63;90.91
35085;SHT85;21267;51.032;6.998;2023-06-22T16:40:22;22.48;90.89
35085;SHT85;21267;51.032;6.998;2023-06-22T16:42:50;22.32;91.41
35085;SHT85;21267;51.032;6.998;2023-06-22T16:45:19;22.32;91.69
35085;SHT85;21267;51.032;6.998;2023-06-22T16:47:48;22.59;91.36
35085;SHT85;21267;51.032;6.998;2023-06-22T16:50:16;22.54;91.79
35085;SHT85;21267;51.032;6.998;2023-06-22T16:52:44;22.63;91.85
35085;SHT85;21267;51.032;6.998;2023-06-22T16:55:12;22.54;92.14
35085;SHT85;21267;51.032;6.998;2023-06-22T16:57:41;22.32;92.21
35085;SHT85;21267;51.032;6.998;2023-06-22T17:00:08;22.48;91.12
35085;SHT85;21267;51.032;6.998;2023-06-22T17:02:50;22.59;90.80
35085;SHT85;21267;51.032;6.998;2023-06-22T17:05:18;22.57;91.40
35085;SHT85;21267;51.032;6.998;2023-06-22T17:07:51;22.57;91.83
35085;SHT85;21267;51.032;6.998;2023-06-22T17:10:20;22.71;91.10
35085;SHT85;21267;51.032;6.998;2023-06-22T17:12:48;22.77;91.12
35085;SHT85;21267;51.032;6.998;2023-06-22T17:15:18;22.71;91.07
35085;SHT85;21267;51.032;6.998;2023-06-22T17:17:47;22.78;90.32
35085;SHT85;21267;51.032;6.998;2023-06-22T17:20:14;22.77;90.61
35085;SHT85;21267;51.032;6.998;2023-06-22T17:22:46;22.85;89.96
35085;SHT85;21267;51.032;6.998;2023-06-22T17:25:14;22.82;89.80
35085;SHT85;21267;51.032;6.998;2023-06-22T17:27:41;22.92;89.78
35085;SHT85;21267;51.032;6.998;2023-06-22T17:30:10;22.70;89.55
35085;SHT85;21267;51.032;6.998;2023-06-22T17:32:39;22.57;89.87
35085;SHT85;21267;51.032;6.998;2023-06-22T17:35:09;22.71;89.77
35085;SHT85;21267;51.032;6.998;2023-06-22T17:37:57;22.70;89.93
35085;SHT85;21267;51.032;6.998;2023-06-22T17:40:25;22.71;90.11
35085;SHT85;21267;51.032;6.998;2023-06-22T17:43:04;22.77;90.06
35085;SHT85;21267;51.032;6.998;2023-06-22T17:45:40;22.81;90.56
35085;SHT85;21267;51.032;6.998;2023-06-22T17:48:08;22.84;91.03
35085;SHT85;21267;51.032;6.998;2023-06-22T17:50:42;22.80;90.64
35085;SHT85;21267;51.032;6.998;2023-06-22T17:53:12;22.77;90.50
35085;SHT85;21267;51.032;6.998;2023-06-22T17:58:38;22.80;90.92
35085;SHT85;21267;51.032;6.998;2023-06-22T18:01:05;22.80;90.98
35085;SHT85;21267;51.032;6.998;2023-06-22T18:03:46;22.72;91.05
35085;SHT85;21267;51.032;6.998;2023-06-22T18:06:27;22.65;91.00
35085;SHT85;21267;51.032;6.998;2023-06-22T18:09:09;22.61;90.73
35085;SHT85;21267;51.032;6.998;2023-06-22T18:11:50;22.63;91.26
35085;SHT85;21267;51.032;6.998;2023-06-22T18:14:32;22.63;91.40